sensor_id;sensor_type;location;lat;lon;timestamp;P1;durP1;ratioP1;P2;durP2;ratioP2
59167;SDS011;70412;55.048;73.268;2024-03-25T00:02:24;10.10;;;4.10;;
59167;SDS011;70412;55.048;73.268;2024-03-25T00:05:26;13.13;;;5.33;;
59167;SDS011;70412;55.048;73.268;2024-03-25T00:08:29;8.88;;;3.70;;
59167;SDS011;70412;55.048;73.268;2024-03-25T00:11:32;15.00;;;5.28;;
59167;SDS011;70412;55.048;73.268;2024-03-25T00:14:42;12.03;;;5.99;;
59167;SDS011;70412;55.048;73.268;2024-03-25T00:17:48;12.55;;;5.75;;
59167;SDS011;70412;55.048;73.268;2024-03-25T00:20:51;15.73;;;7.70;;
59167;SDS011;70412;55.048;73.268;2024-03-25T00:24:12;24.05;;;9.05;;
59167;SDS011;70412;55.048;73.268;2024-03-25T00:27:15;19.58;;;6.72;;
59167;SDS011;70412;55.048;73.268;2024-03-25T00:30:20;18.10;;;7.07;;
59167;SDS011;70412;55.048;73.268;2024-03-25T00:33:23;16.60;;;6.95;;
59167;SDS011;70412;55.048;73.268;2024-03-25T00:36:26;11.73;;;5.78;;
59167;SDS011;70412;55.048;73.268;2024-03-25T00:39:28;15.43;;;6.13;;
59167;SDS011;70412;55.048;73.268;2024-03-25T00:42:34;14.25;;;5.85;;
59167;SDS011;70412;55.048;73.268;2024-03-25T00:45:36;18.40;;;7.55;;
59167;SDS011;70412;55.048;73.268;2024-03-25T00:48:39;14.23;;;7.63;;
59167;SDS011;70412;55.048;73.268;2024-03-25T00:51:43;16.15;;;6.00;;
59167;SDS011;70412;55.048;73.268;2024-03-25T00:54:45;14.50;;;7.43;;
59167;SDS011;70412;55.048;73.268;2024-03-25T00:57:48;16.77;;;7.75;;
59167;SDS011;70412;55.048;73.268;2024-03-25T01:00:51;14.02;;;7.50;;
59167;SDS011;70412;55.048;73.268;2024-03-25T01:03:54;13.45;;;6.88;;
59167;SDS011;70412;55.048;73.268;2024-03-25T01:06:56;10.15;;;4.85;;
59167;SDS011;70412;55.048;73.268;2024-03-25T01:09:59;16.30;;;8.23;;
59167;SDS011;70412;55.048;73.268;2024-03-25T01:13:02;15.38;;;6.47;;
59167;SDS011;70412;55.048;73.268;2024-03-25T01:16:04;21.33;;;8.20;;
59167;SDS011;70412;55.048;73.268;2024-03-25T01:19:11;23.77;;;9.38;;
59167;SDS011;70412;55.048;73.268;2024-03-25T01:22:14;19.05;;;7.90;;
59167;SDS011;70412;55.048;73.268;2024-03-25T01:25:17;23.60;;;11.15;;
59167;SDS011;70412;55.048;73.268;2024-03-25T01:28:19;13.88;;;6.43;;
59167;SDS011;70412;55.048;73.268;2024-03-25T01:31:22;19.02;;;8.60;;
59167;SDS011;70412;55.048;73.268;2024-03-25T01:34:27;18.90;;;9.48;;
59167;SDS011;70412;55.048;73.268;2024-03-25T01:37:30;18.23;;;8.52;;
59167;SDS011;70412;55.048;73.268;2024-03-25T01:40:35;16.52;;;7.78;;
59167;SDS011;70412;55.048;73.268;2024-03-25T01:43:37;21.67;;;7.85;;
59167;SDS011;70412;55.048;73.268;2024-03-25T01:46:40;16.02;;;7.57;;
59167;SDS011;70412;55.048;73.268;2024-03-25T01:49:47;20.05;;;8.35;;
59167;SDS011;70412;55.048;73.268;2024-03-25T01:52:51;18.00;;;8.10;;
59167;SDS011;70412;55.048;73.268;2024-03-25T01:55:55;18.17;;;8.88;;
59167;SDS011;70412;55.048;73.268;2024-03-25T01:59:00;19.33;;;7.82;;
59167;SDS011;70412;55.048;73.268;2024-03-25T02:02:03;16.10;;;8.00;;
59167;SDS011;70412;55.048;73.268;2024-03-25T02:05:06;16.30;;;7.63;;
59167;SDS011;70412;55.048;73.268;2024-03-25T02:08:09;20.42;;;8.80;;
59167;SDS011;70412;55.048;73.268;2024-03-25T02:11:13;16.88;;;7.28;;
59167;SDS011;70412;55.048;73.268;2024-03-25T02:14:16;18.45;;;7.40;;
59167;SDS011;70412;55.048;73.268;2024-03-25T02:17:19;17.67;;;8.50;;
59167;SDS011;70412;55.048;73.268;2024-03-25T02:20:21;17.05;;;7.63;;
59167;SDS011;70412;55.048;73.268;2024-03-25T02:23:24;18.52;;;8.05;;
59167;SDS011;70412;55.048;73.268;2024-03-25T02:26:28;22.33;;;8.70;;
59167;SDS011;70412;55.048;73.268;2024-03-25T02:29:33;16.58;;;7.65;;
59167;SDS011;70412;55.048;73.268;2024-03-25T02:32:36;15.18;;;7.07;;
59167;SDS011;70412;55.048;73.268;2024-03-25T02:35:39;21.33;;;9.25;;
59167;SDS011;70412;55.048;73.268;2024-03-25T02:38:43;15.93;;;7.63;;
59167;SDS011;70412;55.048;73.268;2024-03-25T02:41:46;13.80;;;7.18;;
59167;SDS011;70412;55.048;73.268;2024-03-25T02:44:49;18.90;;;8.85;;
59167;SDS011;70412;55.048;73.268;2024-03-25T02:47:52;22.33;;;9.35;;
59167;SDS011;70412;55.048;73.268;2024-03-25T02:50:54;16.88;;;8.57;;
59167;SDS011;70412;55.048;73.268;2024-03-25T02:53:57;19.48;;;7.88;;
59167;SDS011;70412;55.048;73.268;2024-03-25T02:57:06;18.90;;;9.35;;
59167;SDS011;70412;55.048;73.268;2024-03-25T03:00:09;16.83;;;7.43;;
59167;SDS011;70412;55.048;73.268;2024-03-25T03:03:12;23.58;;;8.88;;
59167;SDS011;70412;55.048;73.268;2024-03-25T03:06:16;20.85;;;8.63;;
59167;SDS011;70412;55.048;73.268;2024-03-25T03:09:20;22.60;;;9.02;;
59167;SDS011;70412;55.048;73.268;2024-03-25T03:12:23;15.98;;;7.50;;
59167;SDS011;70412;55.048;73.268;2024-03-25T03:15:25;18.73;;;7.85;;
59167;SDS011;70412;55.048;73.268;2024-03-25T03:18:28;14.63;;;6.13;;
59167;SDS011;70412;55.048;73.268;2024-03-25T03:21:31;19.63;;;7.80;;
59167;SDS011;70412;55.048;73.268;2024-03-25T03:24:42;13.31;;;6.57;;
59167;SDS011;70412;55.048;73.268;2024-03-25T03:27:45;22.13;;;9.35;;
59167;SDS011;70412;55.048;73.268;2024-03-25T03:30:47;27.13;;;10.67;;
59167;SDS011;70412;55.048;73.268;2024-03-25T03:33:50;27.65;;;10.35;;
59167;SDS011;70412;55.048;73.268;2024-03-25T03:36:53;19.77;;;8.85;;
59167;SDS011;70412;55.048;73.268;2024-03-25T03:39:55;20.27;;;9.20;;
59167;SDS011;70412;55.048;73.268;2024-03-25T03:42:58;14.55;;;6.72;;
59167;SDS011;70412;55.048;73.268;2024-03-25T03:46:00;18.80;;;8.05;;
59167;SDS011;70412;55.048;73.268;2024-03-25T03:49:03;19.20;;;8.77;;
59167;SDS011;70412;55.048;73.268;2024-03-25T03:52:06;23.40;;;8.73;;
59167;SDS011;70412;55.048;73.268;2024-03-25T03:55:27;22.60;;;9.02;;
59167;SDS011;70412;55.048;73.268;2024-03-25T03:58:29;22.42;;;8.88;;
59167;SDS011;70412;55.048;73.268;2024-03-25T04:01:32;20.52;;;8.57;;
59167;SDS011;70412;55.048;73.268;2024-03-25T04:04:42;17.67;;;7.91;;
59167;SDS011;70412;55.048;73.268;2024-03-25T04:07:44;15.88;;;7.60;;
59167;SDS011;70412;55.048;73.268;2024-03-25T04:10:47;17.83;;;7.40;;
59167;SDS011;70412;55.048;73.268;2024-03-25T04:13:50;17.13;;;8.35;;
59167;SDS011;70412;55.048;73.268;2024-03-25T04:16:52;19.73;;;8.80;;
59167;SDS011;70412;55.048;73.268;2024-03-25T04:19:55;14.07;;;7.07;;
59167;SDS011;70412;55.048;73.268;2024-03-25T04:26:04;17.73;;;6.82;;
59167;SDS011;70412;55.048;73.268;2024-03-25T04:29:09;20.48;;;8.60;;
59167;SDS011;70412;55.048;73.268;2024-03-25T04:32:11;23.90;;;10.52;;
59167;SDS011;70412;55.048;73.268;2024-03-25T04:35:13;18.42;;;9.15;;
59167;SDS011;70412;55.048;73.268;2024-03-25T04:38:16;20.23;;;8.25;;
59167;SDS011;70412;55.048;73.268;2024-03-25T04:41:19;21.88;;;9.35;;
59167;SDS011;70412;55.048;73.268;2024-03-25T04:44:22;25.52;;;11.07;;
59167;SDS011;70412;55.048;73.268;2024-03-25T04:47:24;21.30;;;8.75;;
59167;SDS011;70412;55.048;73.268;2024-03-25T04:50:27;18.10;;;7.85;;
59167;SDS011;70412;55.048;73.268;2024-03-25T04:53:30;21.67;;;8.93;;
59167;SDS011;70412;55.048;73.268;2024-03-25T04:56:33;25.40;;;10.10;;
59167;SDS011;70412;55.048;73.268;2024-03-25T04:59:42;21.60;;;9.82;;
59167;SDS011;70412;55.048;73.268;2024-03-25T05:02:44;24.95;;;10.20;;
59167;SDS011;70412;55.048;73.268;2024-03-25T05:05:47;15.18;;;8.13;;
59167;SDS011;70412;55.048;73.268;2024-03-25T05:08:49;17.33;;;8.30;;
59167;SDS011;70412;55.048;73.268;2024-03-25T05:11:52;28.83;;;10.73;;
59167;SDS011;70412;55.048;73.268;2024-03-25T05:14:54;17.75;;;7.57;;
59167;SDS011;70412;55.048;73.268;2024-03-25T05:17:57;18.20;;;8.55;;
59167;SDS011;70412;55.048;73.268;2024-03-25T05:20:59;17.85;;;7.15;;
59167;SDS011;70412;55.048;73.268;2024-03-25T05:24:01;21.38;;;7.75;;
59167;SDS011;70412;55.048;73.268;2024-03-25T05:27:04;18.45;;;8.68;;
59167;SDS011;70412;55.048;73.268;2024-03-25T05:30:07;14.77;;;7.38;;
59167;SDS011;70412;55.048;73.268;2024-03-25T05:33:10;17.52;;;7.88;;
59167;SDS011;70412;55.048;73.268;2024-03-25T05:36:12;13.05;;;6.30;;
59167;SDS011;70412;55.048;73.268;2024-03-25T05:39:18;15.57;;;7.83;;
59167;SDS011;70412;55.048;73.268;2024-03-25T05:42:21;14.77;;;7.25;;
59167;SDS011;70412;55.048;73.268;2024-03-25T05:45:24;24.88;;;11.30;;
59167;SDS011;70412;55.048;73.268;2024-03-25T05:48:26;19.42;;;9.35;;
59167;SDS011;70412;55.048;73.268;2024-03-25T05:51:29;34.60;;;12.75;;
59167;SDS011;70412;55.048;73.268;2024-03-25T05:54:32;21.75;;;9.27;;
59167;SDS011;70412;55.048;73.268;2024-03-25T05:57:34;19.55;;;8.50;;
59167;SDS011;70412;55.048;73.268;2024-03-25T06:00:37;19.63;;;7.43;;
59167;SDS011;70412;55.048;73.268;2024-03-25T06:03:39;14.98;;;7.85;;
59167;SDS011;70412;55.048;73.268;2024-03-25T06:06:42;26.35;;;11.32;;
59167;SDS011;70412;55.048;73.268;2024-03-25T06:09:44;17.66;;;8.32;;
59167;SDS011;70412;55.048;73.268;2024-03-25T06:12:47;21.98;;;10.77;;
59167;SDS011;70412;55.048;73.268;2024-03-25T06:15:49;17.23;;;8.17;;
59167;SDS011;70412;55.048;73.268;2024-03-25T06:18:52;13.75;;;6.45;;
59167;SDS011;70412;55.048;73.268;2024-03-25T06:21:54;24.63;;;10.55;;
59167;SDS011;70412;55.048;73.268;2024-03-25T06:24:56;20.52;;;8.98;;
59167;SDS011;70412;55.048;73.268;2024-03-25T06:27:59;20.15;;;7.57;;
59167;SDS011;70412;55.048;73.268;2024-03-25T06:31:04;16.30;;;8.20;;
59167;SDS011;70412;55.048;73.268;2024-03-25T06:34:25;16.80;;;8.88;;
59167;SDS011;70412;55.048;73.268;2024-03-25T06:37:27;12.05;;;5.70;;
59167;SDS011;70412;55.048;73.268;2024-03-25T06:40:30;16.30;;;8.10;;
59167;SDS011;70412;55.048;73.268;2024-03-25T06:43:32;10.95;;;6.00;;
59167;SDS011;70412;55.048;73.268;2024-03-25T06:46:35;6.20;;;3.47;;
59167;SDS011;70412;55.048;73.268;2024-03-25T06:49:42;6.70;;;4.65;;
59167;SDS011;70412;55.048;73.268;2024-03-25T06:52:44;10.80;;;6.03;;
59167;SDS011;70412;55.048;73.268;2024-03-25T06:58:56;12.25;;;6.85;;
59167;SDS011;70412;55.048;73.268;2024-03-25T07:01:59;10.98;;;6.25;;
59167;SDS011;70412;55.048;73.268;2024-03-25T07:05:01;44.60;;;17.33;;
59167;SDS011;70412;55.048;73.268;2024-03-25T07:08:04;13.43;;;6.60;;
59167;SDS011;70412;55.048;73.268;2024-03-25T07:11:07;18.40;;;9.07;;
59167;SDS011;70412;55.048;73.268;2024-03-25T07:14:09;31.17;;;13.65;;
59167;SDS011;70412;55.048;73.268;2024-03-25T07:17:11;11.40;;;6.22;;
59167;SDS011;70412;55.048;73.268;2024-03-25T07:20:14;18.08;;;8.52;;
59167;SDS011;70412;55.048;73.268;2024-03-25T07:23:16;15.77;;;7.88;;
59167;SDS011;70412;55.048;73.268;2024-03-25T07:26:19;17.23;;;8.23;;
59167;SDS011;70412;55.048;73.268;2024-03-25T07:29:21;17.75;;;9.73;;
59167;SDS011;70412;55.048;73.268;2024-03-25T07:32:23;15.20;;;7.03;;
59167;SDS011;70412;55.048;73.268;2024-03-25T07:35:26;10.20;;;5.72;;
59167;SDS011;70412;55.048;73.268;2024-03-25T07:38:28;15.77;;;6.68;;
59167;SDS011;70412;55.048;73.268;2024-03-25T07:41:31;20.08;;;8.68;;
59167;SDS011;70412;55.048;73.268;2024-03-25T07:44:42;10.86;;;5.49;;
59167;SDS011;70412;55.048;73.268;2024-03-25T07:47:45;13.52;;;7.43;;
59167;SDS011;70412;55.048;73.268;2024-03-25T07:50:47;12.05;;;6.03;;
59167;SDS011;70412;55.048;73.268;2024-03-25T07:53:50;14.82;;;7.32;;
59167;SDS011;70412;55.048;73.268;2024-03-25T07:56:53;14.90;;;7.68;;
59167;SDS011;70412;55.048;73.268;2024-03-25T07:59:55;7.30;;;4.22;;
59167;SDS011;70412;55.048;73.268;2024-03-25T08:02:58;10.10;;;4.18;;
59167;SDS011;70412;55.048;73.268;2024-03-25T08:06:00;10.82;;;5.47;;
59167;SDS011;70412;55.048;73.268;2024-03-25T08:09:03;11.70;;;6.18;;
59167;SDS011;70412;55.048;73.268;2024-03-25T08:12:08;11.25;;;6.20;;
59167;SDS011;70412;55.048;73.268;2024-03-25T08:15:10;13.45;;;7.50;;
59167;SDS011;70412;55.048;73.268;2024-03-25T08:18:13;11.02;;;5.90;;
59167;SDS011;70412;55.048;73.268;2024-03-25T08:21:16;11.25;;;5.55;;
59167;SDS011;70412;55.048;73.268;2024-03-25T08:24:19;12.73;;;6.03;;
59167;SDS011;70412;55.048;73.268;2024-03-25T08:27:22;18.58;;;7.53;;
59167;SDS011;70412;55.048;73.268;2024-03-25T08:30:25;15.98;;;8.00;;
59167;SDS011;70412;55.048;73.268;2024-03-25T08:33:27;16.02;;;8.07;;
59167;SDS011;70412;55.048;73.268;2024-03-25T08:36:39;9.65;;;4.72;;
59167;SDS011;70412;55.048;73.268;2024-03-25T08:39:42;24.35;;;7.28;;
59167;SDS011;70412;55.048;73.268;2024-03-25T08:42:44;14.30;;;5.85;;
59167;SDS011;70412;55.048;73.268;2024-03-25T08:45:47;13.55;;;6.05;;
59167;SDS011;70412;55.048;73.268;2024-03-25T08:48:49;12.15;;;5.68;;
59167;SDS011;70412;55.048;73.268;2024-03-25T08:51:52;12.95;;;6.88;;
59167;SDS011;70412;55.048;73.268;2024-03-25T08:54:54;11.38;;;4.65;;
59167;SDS011;70412;55.048;73.268;2024-03-25T08:57:57;15.45;;;7.30;;
59167;SDS011;70412;55.048;73.268;2024-03-25T09:01:02;11.17;;;5.30;;
59167;SDS011;70412;55.048;73.268;2024-03-25T09:04:05;10.43;;;4.72;;
59167;SDS011;70412;55.048;73.268;2024-03-25T09:07:07;15.90;;;7.25;;
59167;SDS011;70412;55.048;73.268;2024-03-25T09:10:10;19.15;;;9.20;;
59167;SDS011;70412;55.048;73.268;2024-03-25T09:13:32;12.60;;;5.40;;
59167;SDS011;70412;55.048;73.268;2024-03-25T09:16:34;21.67;;;7.65;;
59167;SDS011;70412;55.048;73.268;2024-03-25T09:19:42;14.05;;;7.30;;
59167;SDS011;70412;55.048;73.268;2024-03-25T09:22:49;13.95;;;7.32;;
59167;SDS011;70412;55.048;73.268;2024-03-25T09:25:52;16.17;;;5.85;;
59167;SDS011;70412;55.048;73.268;2024-03-25T09:28:55;16.45;;;8.60;;
59167;SDS011;70412;55.048;73.268;2024-03-25T09:31:58;15.52;;;7.95;;
59167;SDS011;70412;55.048;73.268;2024-03-25T09:35:04;9.88;;;5.15;;
59167;SDS011;70412;55.048;73.268;2024-03-25T09:38:07;14.90;;;7.38;;
59167;SDS011;70412;55.048;73.268;2024-03-25T09:41:10;10.30;;;5.75;;
59167;SDS011;70412;55.048;73.268;2024-03-25T09:44:13;15.15;;;7.10;;
59167;SDS011;70412;55.048;73.268;2024-03-25T09:47:16;12.27;;;6.05;;
59167;SDS011;70412;55.048;73.268;2024-03-25T09:50:20;15.45;;;8.05;;
59167;SDS011;70412;55.048;73.268;2024-03-25T09:53:23;14.27;;;7.38;;
59167;SDS011;70412;55.048;73.268;2024-03-25T09:56:25;15.30;;;7.25;;
59167;SDS011;70412;55.048;73.268;2024-03-25T09:59:27;9.77;;;5.15;;
59167;SDS011;70412;55.048;73.268;2024-03-25T10:02:30;15.10;;;7.57;;
59167;SDS011;70412;55.048;73.268;2024-03-25T10:05:34;16.90;;;8.02;;
59167;SDS011;70412;55.048;73.268;2024-03-25T10:08:37;11.25;;;6.25;;
59167;SDS011;70412;55.048;73.268;2024-03-25T10:11:39;9.25;;;5.03;;
59167;SDS011;70412;55.048;73.268;2024-03-25T10:14:42;15.70;;;7.88;;
59167;SDS011;70412;55.048;73.268;2024-03-25T10:17:48;9.18;;;5.47;;
59167;SDS011;70412;55.048;73.268;2024-03-25T10:20:51;14.10;;;6.60;;
59167;SDS011;70412;55.048;73.268;2024-03-25T10:23:55;13.95;;;5.88;;
59167;SDS011;70412;55.048;73.268;2024-03-25T10:26:58;9.85;;;6.03;;
59167;SDS011;70412;55.048;73.268;2024-03-25T10:30:01;10.32;;;6.03;;
59167;SDS011;70412;55.048;73.268;2024-03-25T10:33:04;13.85;;;7.32;;
59167;SDS011;70412;55.048;73.268;2024-03-25T10:36:08;12.80;;;7.07;;
59167;SDS011;70412;55.048;73.268;2024-03-25T10:39:11;11.43;;;6.35;;
59167;SDS011;70412;55.048;73.268;2024-03-25T10:42:21;10.48;;;6.32;;
59167;SDS011;70412;55.048;73.268;2024-03-25T10:45:24;14.70;;;7.40;;
59167;SDS011;70412;55.048;73.268;2024-03-25T10:48:30;17.08;;;8.45;;
59167;SDS011;70412;55.048;73.268;2024-03-25T10:51:36;14.00;;;7.68;;
59167;SDS011;70412;55.048;73.268;2024-03-25T10:54:42;10.93;;;6.60;;
59167;SDS011;70412;55.048;73.268;2024-03-25T10:57:46;12.50;;;7.43;;
59167;SDS011;70412;55.048;73.268;2024-03-25T11:00:53;17.17;;;7.18;;
59167;SDS011;70412;55.048;73.268;2024-03-25T11:03:58;15.48;;;7.50;;
59167;SDS011;70412;55.048;73.268;2024-03-25T11:07:11;14.82;;;7.78;;
59167;SDS011;70412;55.048;73.268;2024-03-25T11:10:15;14.80;;;7.97;;
59167;SDS011;70412;55.048;73.268;2024-03-25T11:13:18;14.80;;;7.45;;
59167;SDS011;70412;55.048;73.268;2024-03-25T11:16:30;13.82;;;7.05;;
59167;SDS011;70412;55.048;73.268;2024-03-25T11:19:42;13.91;;;7.61;;
59167;SDS011;70412;55.048;73.268;2024-03-25T11:22:48;17.52;;;7.88;;
59167;SDS011;70412;55.048;73.268;2024-03-25T11:25:54;15.30;;;7.57;;
59167;SDS011;70412;55.048;73.268;2024-03-25T11:28:59;17.38;;;8.15;;
59167;SDS011;70412;55.048;73.268;2024-03-25T11:32:04;17.42;;;8.30;;
59167;SDS011;70412;55.048;73.268;2024-03-25T11:38:09;18.88;;;8.48;;
59167;SDS011;70412;55.048;73.268;2024-03-25T11:41:12;21.35;;;6.72;;
59167;SDS011;70412;55.048;73.268;2024-03-25T11:44:15;19.67;;;9.10;;
59167;SDS011;70412;55.048;73.268;2024-03-25T11:47:21;15.07;;;6.93;;
59167;SDS011;70412;55.048;73.268;2024-03-25T11:50:25;10.35;;;6.45;;
59167;SDS011;70412;55.048;73.268;2024-03-25T11:53:29;11.52;;;6.18;;
59167;SDS011;70412;55.048;73.268;2024-03-25T11:56:34;13.82;;;7.15;;
59167;SDS011;70412;55.048;73.268;2024-03-25T11:59:42;13.52;;;5.88;;
59167;SDS011;70412;55.048;73.268;2024-03-25T12:02:48;12.50;;;6.90;;
59167;SDS011;70412;55.048;73.268;2024-03-25T12:05:52;18.10;;;8.30;;
59167;SDS011;70412;55.048;73.268;2024-03-25T12:08:55;14.63;;;8.00;;
59167;SDS011;70412;55.048;73.268;2024-03-25T12:12:16;22.33;;;8.32;;
59167;SDS011;70412;55.048;73.268;2024-03-25T12:15:18;14.88;;;7.13;;
59167;SDS011;70412;55.048;73.268;2024-03-25T12:22:00;16.92;;;8.20;;
59167;SDS011;70412;55.048;73.268;2024-03-25T12:25:05;20.30;;;7.65;;
59167;SDS011;70412;55.048;73.268;2024-03-25T12:28:09;12.82;;;7.07;;
59167;SDS011;70412;55.048;73.268;2024-03-25T12:31:11;15.13;;;7.93;;
59167;SDS011;70412;55.048;73.268;2024-03-25T12:34:20;18.70;;;9.45;;
59167;SDS011;70412;55.048;73.268;2024-03-25T12:37:39;16.63;;;9.18;;
59167;SDS011;70412;55.048;73.268;2024-03-25T12:40:54;13.73;;;7.43;;
59167;SDS011;70412;55.048;73.268;2024-03-25T12:44:05;14.48;;;7.85;;
59167;SDS011;70412;55.048;73.268;2024-03-25T12:47:07;17.17;;;8.93;;
59167;SDS011;70412;55.048;73.268;2024-03-25T12:50:22;22.00;;;10.82;;
59167;SDS011;70412;55.048;73.268;2024-03-25T12:53:25;25.95;;;13.55;;
59167;SDS011;70412;55.048;73.268;2024-03-25T12:56:28;15.87;;;8.40;;
59167;SDS011;70412;55.048;73.268;2024-03-25T12:59:30;20.27;;;12.65;;
59167;SDS011;70412;55.048;73.268;2024-03-25T13:02:33;13.60;;;8.02;;
59167;SDS011;70412;55.048;73.268;2024-03-25T13:05:36;19.02;;;8.27;;
59167;SDS011;70412;55.048;73.268;2024-03-25T13:08:39;20.85;;;10.98;;
59167;SDS011;70412;55.048;73.268;2024-03-25T13:11:42;25.83;;;14.07;;
59167;SDS011;70412;55.048;73.268;2024-03-25T13:14:45;22.28;;;11.12;;
59167;SDS011;70412;55.048;73.268;2024-03-25T13:17:48;22.50;;;10.20;;
59167;SDS011;70412;55.048;73.268;2024-03-25T13:20:51;20.77;;;10.07;;
59167;SDS011;70412;55.048;73.268;2024-03-25T13:23:54;20.67;;;10.77;;
59167;SDS011;70412;55.048;73.268;2024-03-25T13:26:56;21.15;;;11.25;;
59167;SDS011;70412;55.048;73.268;2024-03-25T13:29:59;24.50;;;10.35;;
59167;SDS011;70412;55.048;73.268;2024-03-25T13:33:01;22.45;;;11.38;;
59167;SDS011;70412;55.048;73.268;2024-03-25T13:36:24;21.77;;;11.98;;
59167;SDS011;70412;55.048;73.268;2024-03-25T13:39:26;27.17;;;11.93;;
59167;SDS011;70412;55.048;73.268;2024-03-25T13:42:36;29.30;;;13.13;;
59167;SDS011;70412;55.048;73.268;2024-03-25T13:45:45;27.48;;;13.15;;
59167;SDS011;70412;55.048;73.268;2024-03-25T13:48:49;38.80;;;15.68;;
59167;SDS011;70412;55.048;73.268;2024-03-25T13:52:14;43.83;;;17.83;;
59167;SDS011;70412;55.048;73.268;2024-03-25T13:55:17;28.77;;;13.13;;
59167;SDS011;70412;55.048;73.268;2024-03-25T13:58:19;44.15;;;16.17;;
59167;SDS011;70412;55.048;73.268;2024-03-25T14:01:22;55.50;;;20.65;;
59167;SDS011;70412;55.048;73.268;2024-03-25T14:04:26;109.15;;;38.90;;
59167;SDS011;70412;55.048;73.268;2024-03-25T14:07:29;47.13;;;20.20;;
59167;SDS011;70412;55.048;73.268;2024-03-25T14:10:31;72.90;;;25.85;;
59167;SDS011;70412;55.048;73.268;2024-03-25T14:13:34;65.05;;;24.10;;
59167;SDS011;70412;55.048;73.268;2024-03-25T14:16:36;51.75;;;20.27;;
59167;SDS011;70412;55.048;73.268;2024-03-25T14:19:42;35.78;;;14.95;;
59167;SDS011;70412;55.048;73.268;2024-03-25T14:22:44;69.38;;;26.88;;
59167;SDS011;70412;55.048;73.268;2024-03-25T14:25:47;65.85;;;24.20;;
59167;SDS011;70412;55.048;73.268;2024-03-25T14:28:49;47.03;;;21.48;;
59167;SDS011;70412;55.048;73.268;2024-03-25T14:31:52;40.45;;;18.45;;
59167;SDS011;70412;55.048;73.268;2024-03-25T14:35:10;30.83;;;13.73;;
59167;SDS011;70412;55.048;73.268;2024-03-25T14:38:12;44.30;;;18.63;;
59167;SDS011;70412;55.048;73.268;2024-03-25T14:41:19;29.20;;;15.10;;
59167;SDS011;70412;55.048;73.268;2024-03-25T14:44:22;25.00;;;12.45;;
59167;SDS011;70412;55.048;73.268;2024-03-25T14:47:25;28.20;;;12.55;;
59167;SDS011;70412;55.048;73.268;2024-03-25T14:50:27;35.75;;;16.25;;
59167;SDS011;70412;55.048;73.268;2024-03-25T14:53:30;35.58;;;15.85;;
59167;SDS011;70412;55.048;73.268;2024-03-25T14:56:32;42.92;;;19.80;;
59167;SDS011;70412;55.048;73.268;2024-03-25T14:59:42;31.97;;;14.47;;
59167;SDS011;70412;55.048;73.268;2024-03-25T15:02:45;31.58;;;15.00;;
59167;SDS011;70412;55.048;73.268;2024-03-25T15:05:47;35.87;;;14.43;;
59167;SDS011;70412;55.048;73.268;2024-03-25T15:08:49;36.25;;;16.23;;
59167;SDS011;70412;55.048;73.268;2024-03-25T15:11:53;38.50;;;16.37;;
59167;SDS011;70412;55.048;73.268;2024-03-25T15:14:55;41.83;;;17.90;;
59167;SDS011;70412;55.048;73.268;2024-03-25T15:17:58;38.38;;;16.35;;
59167;SDS011;70412;55.048;73.268;2024-03-25T15:21:03;44.35;;;17.58;;
59167;SDS011;70412;55.048;73.268;2024-03-25T15:24:07;39.03;;;16.60;;
59167;SDS011;70412;55.048;73.268;2024-03-25T15:27:10;31.17;;;13.70;;
59167;SDS011;70412;55.048;73.268;2024-03-25T15:30:12;33.88;;;13.68;;
59167;SDS011;70412;55.048;73.268;2024-03-25T15:33:15;29.73;;;13.70;;
59167;SDS011;70412;55.048;73.268;2024-03-25T15:36:19;30.30;;;14.93;;
59167;SDS011;70412;55.048;73.268;2024-03-25T15:39:21;33.88;;;14.20;;
59167;SDS011;70412;55.048;73.268;2024-03-25T15:42:24;32.03;;;14.38;;
59167;SDS011;70412;55.048;73.268;2024-03-25T15:45:26;44.45;;;18.00;;
59167;SDS011;70412;55.048;73.268;2024-03-25T15:48:30;69.75;;;24.85;;
59167;SDS011;70412;55.048;73.268;2024-03-25T15:51:33;33.88;;;16.60;;
59167;SDS011;70412;55.048;73.268;2024-03-25T15:54:42;36.65;;;16.80;;
59167;SDS011;70412;55.048;73.268;2024-03-25T15:57:45;51.60;;;20.23;;
59167;SDS011;70412;55.048;73.268;2024-03-25T16:00:47;34.97;;;15.15;;
59167;SDS011;70412;55.048;73.268;2024-03-25T16:03:50;35.70;;;15.23;;
59167;SDS011;70412;55.048;73.268;2024-03-25T16:06:53;32.15;;;15.77;;
59167;SDS011;70412;55.048;73.268;2024-03-25T16:09:55;35.20;;;15.20;;
59167;SDS011;70412;55.048;73.268;2024-03-25T16:12:58;32.25;;;15.68;;
59167;SDS011;70412;55.048;73.268;2024-03-25T16:16:04;30.02;;;15.30;;
59167;SDS011;70412;55.048;73.268;2024-03-25T16:19:07;37.67;;;15.27;;
59167;SDS011;70412;55.048;73.268;2024-03-25T16:22:10;44.42;;;17.15;;
59167;SDS011;70412;55.048;73.268;2024-03-25T16:25:13;75.80;;;22.02;;
59167;SDS011;70412;55.048;73.268;2024-03-25T16:28:16;94.97;;;27.55;;
59167;SDS011;70412;55.048;73.268;2024-03-25T16:31:19;100.90;;;28.83;;
59167;SDS011;70412;55.048;73.268;2024-03-25T16:34:23;132.52;;;36.00;;
59167;SDS011;70412;55.048;73.268;2024-03-25T16:37:25;181.30;;;48.38;;
59167;SDS011;70412;55.048;73.268;2024-03-25T16:40:27;153.63;;;47.13;;
59167;SDS011;70412;55.048;73.268;2024-03-25T16:43:32;49.78;;;19.05;;
59167;SDS011;70412;55.048;73.268;2024-03-25T16:46:35;38.20;;;16.85;;
59167;SDS011;70412;55.048;73.268;2024-03-25T16:49:42;39.63;;;16.50;;
59167;SDS011;70412;55.048;73.268;2024-03-25T16:52:45;43.58;;;18.42;;
59167;SDS011;70412;55.048;73.268;2024-03-25T16:55:50;38.78;;;15.55;;
59167;SDS011;70412;55.048;73.268;2024-03-25T16:58:53;36.95;;;16.25;;
59167;SDS011;70412;55.048;73.268;2024-03-25T17:01:56;41.50;;;17.55;;
59167;SDS011;70412;55.048;73.268;2024-03-25T17:04:58;35.57;;;15.50;;
59167;SDS011;70412;55.048;73.268;2024-03-25T17:08:01;59.83;;;24.40;;
59167;SDS011;70412;55.048;73.268;2024-03-25T17:11:03;43.72;;;19.15;;
59167;SDS011;70412;55.048;73.268;2024-03-25T17:14:06;65.38;;;25.17;;
59167;SDS011;70412;55.048;73.268;2024-03-25T17:17:08;53.83;;;22.50;;
59167;SDS011;70412;55.048;73.268;2024-03-25T17:20:11;73.13;;;28.42;;
59167;SDS011;70412;55.048;73.268;2024-03-25T17:23:13;55.28;;;22.98;;
59167;SDS011;70412;55.048;73.268;2024-03-25T17:26:16;65.10;;;25.40;;
59167;SDS011;70412;55.048;73.268;2024-03-25T17:29:19;84.28;;;32.13;;
59167;SDS011;70412;55.048;73.268;2024-03-25T17:32:21;101.90;;;39.72;;
59167;SDS011;70412;55.048;73.268;2024-03-25T17:35:24;126.22;;;49.80;;
59167;SDS011;70412;55.048;73.268;2024-03-25T17:38:26;91.03;;;33.60;;
59167;SDS011;70412;55.048;73.268;2024-03-25T17:41:28;86.85;;;34.22;;
59167;SDS011;70412;55.048;73.268;2024-03-25T17:44:31;99.80;;;36.50;;
59167;SDS011;70412;55.048;73.268;2024-03-25T17:47:34;83.47;;;29.23;;
59167;SDS011;70412;55.048;73.268;2024-03-25T17:50:37;70.03;;;26.50;;
59167;SDS011;70412;55.048;73.268;2024-03-25T17:53:39;66.20;;;25.67;;
59167;SDS011;70412;55.048;73.268;2024-03-25T17:56:42;90.03;;;32.95;;
59167;SDS011;70412;55.048;73.268;2024-03-25T17:59:46;78.26;;;30.10;;
59167;SDS011;70412;55.048;73.268;2024-03-25T18:02:48;53.45;;;20.67;;
59167;SDS011;70412;55.048;73.268;2024-03-25T18:05:55;44.38;;;20.27;;